sensor_id;sensor_type;location;lat;lon;timestamp;pressure;altitude;pressure_sealevel;temperature
62611;BMP280;48683;48.084;17.272;2023-02-01T00:01:17;100415.97;;;5.46
62611;BMP280;48683;48.084;17.272;2023-02-01T00:03:42;100409.63;;;5.35
62611;BMP280;48683;48.084;17.272;2023-02-01T00:06:08;100414.16;;;5.35
62611;BMP280;48683;48.084;17.272;2023-02-01T00:08:33;100418.53;;;5.27
62611;BMP280;48683;48.084;17.272;2023-02-01T00:11:07;100416.34;;;5.29
62611;BMP280;48683;48.084;17.272;2023-02-01T00:13:35;100422.94;;;5.35
62611;BMP280;48683;48.084;17.272;2023-02-01T00:16:09;100410.22;;;5.29
62611;BMP280;48683;48.084;17.272;2023-02-01T00:18:37;100405.75;;;5.33
62611;BMP280;48683;48.084;17.272;2023-02-01T00:21:03;100400.44;;;5.33
62611;BMP280;48683;48.084;17.272;2023-02-01T00:23:32;100393.56;;;5.32
62611;BMP280;48683;48.084;17.272;2023-02-01T00:26:03;100391.84;;;5.23
62611;BMP280;48683;48.084;17.272;2023-02-01T00:28:29;100394.75;;;5.18
62611;BMP280;48683;48.084;17.272;2023-02-01T00:31:01;100378.53;;;5.23
62611;BMP280;48683;48.084;17.272;2023-02-01T00:33:28;100397.25;;;5.27
62611;BMP280;48683;48.084;17.272;2023-02-01T00:35:58;100392.94;;;5.22
62611;BMP280;48683;48.084;17.272;2023-02-01T00:38:25;100380.75;;;5.21
62611;BMP280;48683;48.084;17.272;2023-02-01T00:40:51;100365.41;;;5.15
62611;BMP280;48683;48.084;17.272;2023-02-01T00:43:16;100363.44;;;5.12
62611;BMP280;48683;48.084;17.272;2023-02-01T00:45:41;100367.66;;;5.13
62611;BMP280;48683;48.084;17.272;2023-02-01T00:48:07;100365.22;;;5.08
62611;BMP280;48683;48.084;17.272;2023-02-01T00:50:32;100355.44;;;4.96
62611;BMP280;48683;48.084;17.272;2023-02-01T00:52:57;100370.81;;;5.03
62611;BMP280;48683;48.084;17.272;2023-02-01T00:55:23;100366.41;;;4.95
62611;BMP280;48683;48.084;17.272;2023-02-01T00:57:48;100372.97;;;4.97
62611;BMP280;48683;48.084;17.272;2023-02-01T01:00:14;100365.75;;;4.98
62611;BMP280;48683;48.084;17.272;2023-02-01T01:02:41;100372.59;;;4.99
62611;BMP280;48683;48.084;17.272;2023-02-01T01:05:06;100369.09;;;4.95
62611;BMP280;48683;48.084;17.272;2023-02-01T01:07:32;100363.34;;;4.93
62611;BMP280;48683;48.084;17.272;2023-02-01T01:09:57;100344.28;;;4.91
62611;BMP280;48683;48.084;17.272;2023-02-01T01:12:22;100352.69;;;4.93
62611;BMP280;48683;48.084;17.272;2023-02-01T01:14:48;100353.81;;;4.92
62611;BMP280;48683;48.084;17.272;2023-02-01T01:17:13;100349.44;;;4.84
62611;BMP280;48683;48.084;17.272;2023-02-01T01:19:38;100356.38;;;4.88
62611;BMP280;48683;48.084;17.272;2023-02-01T01:22:04;100353.41;;;4.90
62611;BMP280;48683;48.084;17.272;2023-02-01T01:24:29;100359.50;;;4.90
62611;BMP280;48683;48.084;17.272;2023-02-01T01:26:54;100353.47;;;4.93
62611;BMP280;48683;48.084;17.272;2023-02-01T01:29:20;100353.47;;;4.93
62611;BMP280;48683;48.084;17.272;2023-02-01T01:31:45;100345.59;;;4.97
62611;BMP280;48683;48.084;17.272;2023-02-01T01:34:10;100349.03;;;4.97
62611;BMP280;48683;48.084;17.272;2023-02-01T01:36:36;100332.69;;;4.99
62611;BMP280;48683;48.084;17.272;2023-02-01T01:39:01;100332.63;;;4.95
62611;BMP280;48683;48.084;17.272;2023-02-01T01:41:31;100328.22;;;5.03
62611;BMP280;48683;48.084;17.272;2023-02-01T01:44:00;100339.81;;;5.10
62611;BMP280;48683;48.084;17.272;2023-02-01T01:46:26;100338.09;;;5.02
62611;BMP280;48683;48.084;17.272;2023-02-01T01:49:04;100338.38;;;4.97
62611;BMP280;48683;48.084;17.272;2023-02-01T01:51:32;100333.91;;;5.01
62611;BMP280;48683;48.084;17.272;2023-02-01T01:54:12;100332.69;;;4.99
62611;BMP280;48683;48.084;17.272;2023-02-01T01:56:40;100341.53;;;5.03
62611;BMP280;48683;48.084;17.272;2023-02-01T01:59:07;100330.47;;;5.01
62611;BMP280;48683;48.084;17.272;2023-02-01T02:01:32;100331.75;;;5.07
62611;BMP280;48683;48.084;17.272;2023-02-01T02:03:58;100327.97;;;5.08
62611;BMP280;48683;48.084;17.272;2023-02-01T02:06:34;100332.59;;;5.11
62611;BMP280;48683;48.084;17.272;2023-02-01T02:09:00;100330.63;;;5.08
62611;BMP280;48683;48.084;17.272;2023-02-01T02:11:26;100308.91;;;5.06
62611;BMP280;48683;48.084;17.272;2023-02-01T02:13:53;100327.53;;;5.06
62611;BMP280;48683;48.084;17.272;2023-02-01T02:28:03;100339.31;;;5.05
62611;BMP280;48683;48.084;17.272;2023-02-01T02:30:58;100342.22;;;5.00
62611;BMP280;48683;48.084;17.272;2023-02-01T02:36:43;100346.53;;;5.04
62611;BMP280;48683;48.084;17.272;2023-02-01T02:39:39;100359.66;;;4.97
62611;BMP280;48683;48.084;17.272;2023-02-01T02:42:19;100366.19;;;5.00
62611;BMP280;48683;48.084;17.272;2023-02-01T02:45:14;100366.69;;;5.05
62611;BMP280;48683;48.084;17.272;2023-02-01T02:48:12;100365.94;;;5.05
62611;BMP280;48683;48.084;17.272;2023-02-01T02:50:49;100374.25;;;5.03
62611;BMP280;48683;48.084;17.272;2023-02-01T02:53:48;100384.19;;;5.06
62611;BMP280;48683;48.084;17.272;2023-02-01T02:56:36;100376.56;;;5.05
62611;BMP280;48683;48.084;17.272;2023-02-01T02:59:24;100367.81;;;5.04
62611;BMP280;48683;48.084;17.272;2023-02-01T03:02:09;100367.03;;;5.04
62611;BMP280;48683;48.084;17.272;2023-02-01T03:04:55;100376.97;;;5.07
62611;BMP280;48683;48.084;17.272;2023-02-01T03:07:46;100371.66;;;5.07
62611;BMP280;48683;48.084;17.272;2023-02-01T03:13:13;100362.25;;;5.09
62611;BMP280;48683;48.084;17.272;2023-02-01T03:20:51;100360.59;;;5.05
62611;BMP280;48683;48.084;17.272;2023-02-01T03:23:21;100361.78;;;5.07
62611;BMP280;48683;48.084;17.272;2023-02-01T03:25:49;100359.47;;;5.06
62611;BMP280;48683;48.084;17.272;2023-02-01T03:28:17;100337.75;;;5.04
62611;BMP280;48683;48.084;17.272;2023-02-01T03:30:46;100349.50;;;5.03
62611;BMP280;48683;48.084;17.272;2023-02-01T03:33:16;100351.00;;;5.00
62611;BMP280;48683;48.084;17.272;2023-02-01T03:35:59;100348.25;;;4.97
62611;BMP280;48683;48.084;17.272;2023-02-01T03:46:39;100348.31;;;5.00
62611;BMP280;48683;48.084;17.272;2023-02-01T03:49:09;100351.41;;;5.02
62611;BMP280;48683;48.084;17.272;2023-02-01T03:51:37;100340.44;;;5.04
62611;BMP280;48683;48.084;17.272;2023-02-01T03:54:04;100339.22;;;5.01
62611;BMP280;48683;48.084;17.272;2023-02-01T03:56:31;100346.59;;;5.08
62611;BMP280;48683;48.084;17.272;2023-02-01T03:58:59;100335.53;;;5.06
62611;BMP280;48683;48.084;17.272;2023-02-01T04:01:30;100348.25;;;5.12
62611;BMP280;48683;48.084;17.272;2023-02-01T04:03:56;100358.88;;;5.12
62611;BMP280;48683;48.084;17.272;2023-02-01T04:06:21;100357.94;;;5.20
62611;BMP280;48683;48.084;17.272;2023-02-01T04:08:47;100356.47;;;5.23
62611;BMP280;48683;48.084;17.272;2023-02-01T04:11:12;100343.84;;;5.20
62611;BMP280;48683;48.084;17.272;2023-02-01T04:13:38;100349.41;;;5.31
62611;BMP280;48683;48.084;17.272;2023-02-01T04:16:03;100355.09;;;5.29
62611;BMP280;48683;48.084;17.272;2023-02-01T04:18:29;100359.03;;;5.35
62611;BMP280;48683;48.084;17.272;2023-02-01T04:20:54;100359.72;;;5.32
62611;BMP280;48683;48.084;17.272;2023-02-01T04:23:19;100351.56;;;5.41
62611;BMP280;48683;48.084;17.272;2023-02-01T04:25:45;100354.56;;;5.39
62611;BMP280;48683;48.084;17.272;2023-02-01T04:28:11;100339.78;;;5.42
62611;BMP280;48683;48.084;17.272;2023-02-01T04:30:36;100345.94;;;5.46
62611;BMP280;48683;48.084;17.272;2023-02-01T04:33:02;100346.41;;;5.48
62611;BMP280;48683;48.084;17.272;2023-02-01T04:35:30;100345.44;;;5.56
62611;BMP280;48683;48.084;17.272;2023-02-01T04:37:55;100336.66;;;5.55
62611;BMP280;48683;48.084;17.272;2023-02-01T04:40:21;100345.59;;;5.63
62611;BMP280;48683;48.084;17.272;2023-02-01T04:42:46;100342.47;;;5.61
62611;BMP280;48683;48.084;17.272;2023-02-01T04:45:12;100322.56;;;5.55
62611;BMP280;48683;48.084;17.272;2023-02-01T04:47:38;100327.91;;;5.55
62611;BMP280;48683;48.084;17.272;2023-02-01T04:50:04;100327.38;;;5.49
62611;BMP280;48683;48.084;17.272;2023-02-01T04:52:31;100316.25;;;5.44
62611;BMP280;48683;48.084;17.272;2023-02-01T04:54:56;100329.78;;;5.54
62611;BMP280;48683;48.084;17.272;2023-02-01T04:57:24;100311.06;;;5.51
62611;BMP280;48683;48.084;17.272;2023-02-01T04:59:49;100332.78;;;5.53
62611;BMP280;48683;48.084;17.272;2023-02-01T05:02:15;100308.16;;;5.56
62611;BMP280;48683;48.084;17.272;2023-02-01T05:04:40;100308.22;;;5.59
62611;BMP280;48683;48.084;17.272;2023-02-01T05:07:06;100321.50;;;5.75
62611;BMP280;48683;48.084;17.272;2023-02-01T05:09:31;100302.53;;;5.80
62611;BMP280;48683;48.084;17.272;2023-02-01T05:11:56;100311.75;;;5.83
62611;BMP280;48683;48.084;17.272;2023-02-01T05:15:00;100285.97;;;5.87
62611;BMP280;48683;48.084;17.272;2023-02-01T05:17:25;100310.38;;;5.89
62611;BMP280;48683;48.084;17.272;2023-02-01T05:19:51;100292.59;;;5.77
62611;BMP280;48683;48.084;17.272;2023-02-01T05:22:16;100309.31;;;5.93
62611;BMP280;48683;48.084;17.272;2023-02-01T05:24:41;100295.94;;;5.90
62611;BMP280;48683;48.084;17.272;2023-02-01T05:27:07;100310.25;;;5.85
62611;BMP280;48683;48.084;17.272;2023-02-01T05:29:32;100310.59;;;5.84
62611;BMP280;48683;48.084;17.272;2023-02-01T05:31:57;100310.13;;;5.78
62611;BMP280;48683;48.084;17.272;2023-02-01T05:34:23;100307.53;;;5.82
62611;BMP280;48683;48.084;17.272;2023-02-01T05:36:48;100316.50;;;5.73
62611;BMP280;48683;48.084;17.272;2023-02-01T05:39:13;100309.00;;;5.79
62611;BMP280;48683;48.084;17.272;2023-02-01T05:41:39;100313.84;;;5.73
62611;BMP280;48683;48.084;17.272;2023-02-01T05:44:04;100321.06;;;5.73
62611;BMP280;48683;48.084;17.272;2023-02-01T05:46:33;100311.44;;;5.68
62611;BMP280;48683;48.084;17.272;2023-02-01T05:48:58;100318.25;;;5.66
62611;BMP280;48683;48.084;17.272;2023-02-01T05:51:23;100319.03;;;5.66
62611;BMP280;48683;48.084;17.272;2023-02-01T05:53:49;100319.66;;;5.60
62611;BMP280;48683;48.084;17.272;2023-02-01T05:56:14;100329.59;;;5.63
62611;BMP280;48683;48.084;17.272;2023-02-01T05:58:39;100335.78;;;5.67
62611;BMP280;48683;48.084;17.272;2023-02-01T06:01:05;100325.91;;;5.67
62611;BMP280;48683;48.084;17.272;2023-02-01T06:03:30;100325.06;;;5.63
62611;BMP280;48683;48.084;17.272;2023-02-01T06:05:55;100330.72;;;5.62
62611;BMP280;48683;48.084;17.272;2023-02-01T06:08:21;100329.94;;;5.61
62611;BMP280;48683;48.084;17.272;2023-02-01T06:10:46;100334.41;;;5.57
62611;BMP280;48683;48.084;17.272;2023-02-01T06:13:12;100333.31;;;5.58
62611;BMP280;48683;48.084;17.272;2023-02-01T06:15:37;100335.91;;;5.55
62611;BMP280;48683;48.084;17.272;2023-02-01T06:18:03;100352.97;;;5.54
62611;BMP280;48683;48.084;17.272;2023-02-01T06:20:29;100351.03;;;5.51
62611;BMP280;48683;48.084;17.272;2023-02-01T06:22:54;100336.53;;;5.48
62611;BMP280;48683;48.084;17.272;2023-02-01T06:25:20;100333.34;;;5.43
62611;BMP280;48683;48.084;17.272;2023-02-01T06:27:46;100322.63;;;5.39
62611;BMP280;48683;48.084;17.272;2023-02-01T06:30:12;100334.03;;;5.40
62611;BMP280;48683;48.084;17.272;2023-02-01T06:32:39;100334.13;;;5.43
62611;BMP280;48683;48.084;17.272;2023-02-01T06:35:06;100324.09;;;5.37
62611;BMP280;48683;48.084;17.272;2023-02-01T06:37:32;100325.28;;;5.39
62611;BMP280;48683;48.084;17.272;2023-02-01T06:39:58;100335.84;;;5.36
62611;BMP280;48683;48.084;17.272;2023-02-01T06:42:23;100338.94;;;5.38
62611;BMP280;48683;48.084;17.272;2023-02-01T06:44:49;100346.91;;;5.38
62611;BMP280;48683;48.084;17.272;2023-02-01T06:47:14;100349.56;;;5.38
62611;BMP280;48683;48.084;17.272;2023-02-01T06:49:39;100353.72;;;5.35
62611;BMP280;48683;48.084;17.272;2023-02-01T06:52:05;100360.66;;;5.40
62611;BMP280;48683;48.084;17.272;2023-02-01T06:54:31;100351.28;;;5.46
62611;BMP280;48683;48.084;17.272;2023-02-01T06:56:58;100365.38;;;5.46
62611;BMP280;48683;48.084;17.272;2023-02-01T06:59:24;100366.91;;;5.47
62611;BMP280;48683;48.084;17.272;2023-02-01T07:01:49;100371.03;;;5.45
62611;BMP280;48683;48.084;17.272;2023-02-01T07:04:15;100383.66;;;5.48
62611;BMP280;48683;48.084;17.272;2023-02-01T07:06:40;100388.63;;;5.49
62611;BMP280;48683;48.084;17.272;2023-02-01T07:09:06;100388.72;;;5.53
62611;BMP280;48683;48.084;17.272;2023-02-01T07:11:32;100392.94;;;5.54
62611;BMP280;48683;48.084;17.272;2023-02-01T07:13:58;100384.25;;;5.57
62611;BMP280;48683;48.084;17.272;2023-02-01T07:16:23;100393.09;;;5.61
62611;BMP280;48683;48.084;17.272;2023-02-01T07:18:50;100407.69;;;5.67
62611;BMP280;48683;48.084;17.272;2023-02-01T07:21:16;100395.63;;;5.73
62611;BMP280;48683;48.084;17.272;2023-02-01T07:23:42;100423.66;;;5.83
62611;BMP280;48683;48.084;17.272;2023-02-01T07:26:10;100407.22;;;5.96
62611;BMP280;48683;48.084;17.272;2023-02-01T07:28:37;100416.97;;;6.08
62611;BMP280;48683;48.084;17.272;2023-02-01T07:31:11;100421.00;;;6.17
62611;BMP280;48683;48.084;17.272;2023-02-01T07:33:37;100407.16;;;6.12
62611;BMP280;48683;48.084;17.272;2023-02-01T07:36:04;100408.28;;;6.11
62611;BMP280;48683;48.084;17.272;2023-02-01T07:38:30;100415.94;;;6.12
62611;BMP280;48683;48.084;17.272;2023-02-01T07:41:00;100402.19;;;6.10
62611;BMP280;48683;48.084;17.272;2023-02-01T07:43:26;100415.09;;;6.28
62611;BMP280;48683;48.084;17.272;2023-02-01T07:45:53;100401.22;;;6.38
62611;BMP280;48683;48.084;17.272;2023-02-01T07:48:19;100398.91;;;6.36
62611;BMP280;48683;48.084;17.272;2023-02-01T07:50:44;100396.50;;;6.31
62611;BMP280;48683;48.084;17.272;2023-02-01T07:53:10;100391.03;;;6.24
62611;BMP280;48683;48.084;17.272;2023-02-01T07:55:38;100394.97;;;6.30
62611;BMP280;48683;48.084;17.272;2023-02-01T07:58:04;100402.75;;;6.39
62611;BMP280;48683;48.084;17.272;2023-02-01T08:00:29;100403.25;;;6.44
62611;BMP280;48683;48.084;17.272;2023-02-01T08:03:13;100402.13;;;6.45
62611;BMP280;48683;48.084;17.272;2023-02-01T08:05:39;100406.97;;;6.40
62611;BMP280;48683;48.084;17.272;2023-02-01T08:08:05;100400.91;;;6.43
62611;BMP280;48683;48.084;17.272;2023-02-01T08:10:31;100405.91;;;6.44
62611;BMP280;48683;48.084;17.272;2023-02-01T08:12:59;100406.03;;;6.51
62611;BMP280;48683;48.084;17.272;2023-02-01T08:15:26;100400.44;;;6.56
62611;BMP280;48683;48.084;17.272;2023-02-01T08:17:52;100403.63;;;6.65
62611;BMP280;48683;48.084;17.272;2023-02-01T08:20:19;100405.72;;;6.76
62611;BMP280;48683;48.084;17.272;2023-02-01T08:22:47;100395.31;;;6.90
62611;BMP280;48683;48.084;17.272;2023-02-01T08:25:12;100401.91;;;6.96
62611;BMP280;48683;48.084;17.272;2023-02-01T08:27:38;100402.31;;;6.98
62611;BMP280;48683;48.084;17.272;2023-02-01T08:30:04;100402.03;;;7.03
62611;BMP280;48683;48.084;17.272;2023-02-01T08:32:30;100390.03;;;6.93
62611;BMP280;48683;48.084;17.272;2023-02-01T08:34:55;100394.91;;;7.10
62611;BMP280;48683;48.084;17.272;2023-02-01T08:37:21;100394.28;;;7.21
62611;BMP280;48683;48.084;17.272;2023-02-01T08:39:47;100394.47;;;7.31
62611;BMP280;48683;48.084;17.272;2023-02-01T08:42:15;100388.88;;;7.40
62611;BMP280;48683;48.084;17.272;2023-02-01T08:44:59;100368.91;;;7.30
62611;BMP280;48683;48.084;17.272;2023-02-01T08:47:24;100365.41;;;7.26
62611;BMP280;48683;48.084;17.272;2023-02-01T08:49:50;100356.63;;;7.26
62611;BMP280;48683;48.084;17.272;2023-02-01T08:52:15;100344.03;;;7.26
62611;BMP280;48683;48.084;17.272;2023-02-01T08:54:40;100326.59;;;7.09
62611;BMP280;48683;48.084;17.272;2023-02-01T08:57:07;100344.47;;;7.32
62611;BMP280;48683;48.084;17.272;2023-02-01T08:59:34;100353.06;;;7.44
62611;BMP280;48683;48.084;17.272;2023-02-01T09:01:59;100369.81;;;7.68
62611;BMP280;48683;48.084;17.272;2023-02-01T09:04:25;100363.91;;;7.81
62611;BMP280;48683;48.084;17.272;2023-02-01T09:06:50;100348.25;;;7.83
62611;BMP280;48683;48.084;17.272;2023-02-01T09:09:16;100360.59;;;7.91
62611;BMP280;48683;48.084;17.272;2023-02-01T09:11:41;100370.28;;;8.03
62611;BMP280;48683;48.084;17.272;2023-02-01T09:14:06;100375.72;;;8.10
62611;BMP280;48683;48.084;17.272;2023-02-01T09:16:32;100361.97;;;8.11
62611;BMP280;48683;48.084;17.272;2023-02-01T09:18:57;100355.50;;;8.13
62611;BMP280;48683;48.084;17.272;2023-02-01T09:21:23;100357.75;;;8.10
62611;BMP280;48683;48.084;17.272;2023-02-01T09:23:50;100361.22;;;8.11
62611;BMP280;48683;48.084;17.272;2023-02-01T09:26:16;100363.63;;;8.20
62611;BMP280;48683;48.084;17.272;2023-02-01T09:28:41;100387.19;;;8.40
62611;BMP280;48683;48.084;17.272;2023-02-01T09:31:07;100384.94;;;8.46
62611;BMP280;48683;48.084;17.272;2023-02-01T09:33:32;100384.28;;;8.23
62611;BMP280;48683;48.084;17.272;2023-02-01T09:36:02;100384.28;;;8.23
62611;BMP280;48683;48.084;17.272;2023-02-01T09:38:28;100374.75;;;8.25
62611;BMP280;48683;48.084;17.272;2023-02-01T09:40:55;100379.28;;;8.21
62611;BMP280;48683;48.084;17.272;2023-02-01T09:43:36;100378.88;;;8.19
62611;BMP280;48683;48.084;17.272;2023-02-01T09:46:26;100380.00;;;8.18
62611;BMP280;48683;48.084;17.272;2023-02-01T09:48:58;100376.47;;;8.10
62611;BMP280;48683;48.084;17.272;2023-02-01T09:51:30;100371.06;;;8.03
62611;BMP280;48683;48.084;17.272;2023-02-01T09:54:15;100385.06;;;7.93
62611;BMP280;48683;48.084;17.272;2023-02-01T09:56:54;100371.69;;;7.93
62611;BMP280;48683;48.084;17.272;2023-02-01T09:59:41;100373.91;;;7.88
62611;BMP280;48683;48.084;17.272;2023-02-01T10:02:20;100377.63;;;7.80
62611;BMP280;48683;48.084;17.272;2023-02-01T10:04:47;100378.22;;;7.66
62611;BMP280;48683;48.084;17.272;2023-02-01T10:07:34;100371.31;;;7.65
62611;BMP280;48683;48.084;17.272;2023-02-01T10:10:15;100362.88;;;7.63
62611;BMP280;48683;48.084;17.272;2023-02-01T10:15:34;100352.41;;;7.51
62611;BMP280;48683;48.084;17.272;2023-02-01T10:24:08;100334.63;;;7.36
62611;BMP280;48683;48.084;17.272;2023-02-01T10:26:42;100333.44;;;7.33
62611;BMP280;48683;48.084;17.272;2023-02-01T10:29:16;100322.69;;;7.26
62611;BMP280;48683;48.084;17.272;2023-02-01T10:31:43;100319.22;;;7.26
62611;BMP280;48683;48.084;17.272;2023-02-01T10:36:42;100318.59;;;7.36
62611;BMP280;48683;48.084;17.272;2023-02-01T10:39:13;100302.63;;;7.39
62611;BMP280;48683;48.084;17.272;2023-02-01T10:41:40;100310.00;;;7.46
62611;BMP280;48683;48.084;17.272;2023-02-01T10:44:26;100298.28;;;7.54
62611;BMP280;48683;48.084;17.272;2023-02-01T10:46:53;100308.63;;;7.59
62611;BMP280;48683;48.084;17.272;2023-02-01T10:52:09;100302.06;;;7.53
62611;BMP280;48683;48.084;17.272;2023-02-01T10:54:39;100303.22;;;7.55
62611;BMP280;48683;48.084;17.272;2023-02-01T10:57:25;100298.63;;;7.52
62611;BMP280;48683;48.084;17.272;2023-02-01T10:59:52;100279.47;;;7.47
62611;BMP280;48683;48.084;17.272;2023-02-01T11:02:31;100287.88;;;7.49
62611;BMP280;48683;48.084;17.272;2023-02-01T11:05:09;100280.91;;;7.41
62611;BMP280;48683;48.084;17.272;2023-02-01T11:07:38;100299.31;;;7.46
62611;BMP280;48683;48.084;17.272;2023-02-01T11:10:04;100283.19;;;7.39
62611;BMP280;48683;48.084;17.272;2023-02-01T11:12:32;100277.13;;;7.42
62611;BMP280;48683;48.084;17.272;2023-02-01T11:15:02;100271.34;;;7.40
62611;BMP280;48683;48.084;17.272;2023-02-01T11:17:35;100259.53;;;7.41
62611;BMP280;48683;48.084;17.272;2023-02-01T11:20:09;100267.28;;;7.49
62611;BMP280;48683;48.084;17.272;2023-02-01T11:22:37;100272.38;;;7.58
62611;BMP280;48683;48.084;17.272;2023-02-01T11:25:09;100265.94;;;7.62
62611;BMP280;48683;48.084;17.272;2023-02-01T11:27:35;100262.56;;;7.69
62611;BMP280;48683;48.084;17.272;2023-02-01T11:30:01;100262.31;;;7.78
62611;BMP280;48683;48.084;17.272;2023-02-01T11:32:29;100264.94;;;7.74
62611;BMP280;48683;48.084;17.272;2023-02-01T11:35:05;100273.50;;;7.90
62611;BMP280;48683;48.084;17.272;2023-02-01T11:37:37;100255.56;;;7.91
62611;BMP280;48683;48.084;17.272;2023-02-01T11:40:23;100252.44;;;7.82
62611;BMP280;48683;48.084;17.272;2023-02-01T11:43:07;100259.28;;;7.83
62611;BMP280;48683;48.084;17.272;2023-02-01T11:45:34;100262.75;;;7.83
62611;BMP280;48683;48.084;17.272;2023-02-01T11:48:13;100252.28;;;8.04
62611;BMP280;48683;48.084;17.272;2023-02-01T12:09:57;100243.25;;;7.83
62611;BMP280;48683;48.084;17.272;2023-02-01T12:12:38;100235.63;;;7.81
62611;BMP280;48683;48.084;17.272;2023-02-01T12:15:41;100246.63;;;7.76
62611;BMP280;48683;48.084;17.272;2023-02-01T12:24:30;100246.34;;;7.55
62611;BMP280;48683;48.084;17.272;2023-02-01T12:35:44;100240.66;;;7.27
62611;BMP280;48683;48.084;17.272;2023-02-01T12:41:26;100256.94;;;7.18
62611;BMP280;48683;48.084;17.272;2023-02-01T12:44:17;100268.31;;;7.11
62611;BMP280;48683;48.084;17.272;2023-02-01T12:46:50;100258.94;;;7.25
62611;BMP280;48683;48.084;17.272;2023-02-01T12:49:33;100251.03;;;7.32
62611;BMP280;48683;48.084;17.272;2023-02-01T12:52:06;100247.88;;;7.23
62611;BMP280;48683;48.084;17.272;2023-02-01T12:54:40;100247.59;;;7.31
62611;BMP280;48683;48.084;17.272;2023-02-01T12:57:13;100259.63;;;7.18
62611;BMP280;48683;48.084;17.272;2023-02-01T12:59:55;100285.91;;;7.16
62611;BMP280;48683;48.084;17.272;2023-02-01T13:02:35;100268.56;;;7.03
62611;BMP280;48683;48.084;17.272;2023-02-01T13:05:16;100286.75;;;6.97
62611;BMP280;48683;48.084;17.272;2023-02-01T13:07:58;100273.66;;;6.89
62611;BMP280;48683;48.084;17.272;2023-02-01T13:10:38;100281.19;;;7.06
62611;BMP280;48683;48.084;17.272;2023-02-01T13:13:19;100268.69;;;6.87
62611;BMP280;48683;48.084;17.272;2023-02-01T13:15:54;100262.94;;;6.85
62611;BMP280;48683;48.084;17.272;2023-02-01T13:18:21;100275.94;;;6.87
62611;BMP280;48683;48.084;17.272;2023-02-01T13:23:28;100272.88;;;6.85
62611;BMP280;48683;48.084;17.272;2023-02-01T13:25:54;100272.97;;;6.92
62611;BMP280;48683;48.084;17.272;2023-02-01T13:31:56;100260.16;;;6.78
62611;BMP280;48683;48.084;17.272;2023-02-01T13:38:39;100262.88;;;6.82
62611;BMP280;48683;48.084;17.272;2023-02-01T13:43:15;100248.66;;;6.74
62611;BMP280;48683;48.084;17.272;2023-02-01T13:45:49;100256.66;;;6.74
62611;BMP280;48683;48.084;17.272;2023-02-01T13:48:26;100242.88;;;6.68
62611;BMP280;48683;48.084;17.272;2023-02-01T13:50:54;100250.16;;;6.72
62611;BMP280;48683;48.084;17.272;2023-02-01T13:53:22;100243.28;;;6.71
62611;BMP280;48683;48.084;17.272;2023-02-01T13:56:00;100247.25;;;6.80
62611;BMP280;48683;48.084;17.272;2023-02-01T13:58:33;100230.09;;;6.81
62611;BMP280;48683;48.084;17.272;2023-02-01T14:03:56;100222.84;;;6.82
62611;BMP280;48683;48.084;17.272;2023-02-01T14:16:40;100233.66;;;7.15
62611;BMP280;48683;48.084;17.272;2023-02-01T14:19:29;100228.84;;;7.28
62611;BMP280;48683;48.084;17.272;2023-02-01T14:24:50;100223.22;;;7.66
62611;BMP280;48683;48.084;17.272;2023-02-01T14:27:21;100225.28;;;7.80
62611;BMP280;48683;48.084;17.272;2023-02-01T14:29:53;100209.28;;;7.83
62611;BMP280;48683;48.084;17.272;2023-02-01T14:32:35;100207.41;;;7.87
62611;BMP280;48683;48.084;17.272;2023-02-01T14:35:05;100207.88;;;7.93
62611;BMP280;48683;48.084;17.272;2023-02-01T14:37:34;100202.06;;;7.87
62611;BMP280;48683;48.084;17.272;2023-02-01T14:42:45;100200.94;;;7.88
62611;BMP280;48683;48.084;17.272;2023-02-01T14:47:44;100185.91;;;7.73
62611;BMP280;48683;48.084;17.272;2023-02-01T15:01:24;100187.13;;;7.46
62611;BMP280;48683;48.084;17.272;2023-02-01T15:04:06;100187.44;;;7.41
62611;BMP280;48683;48.084;17.272;2023-02-01T15:06:39;100197.72;;;7.39
62611;BMP280;48683;48.084;17.272;2023-02-01T15:14:28;100194.53;;;7.30
62611;BMP280;48683;48.084;17.272;2023-02-01T15:16:54;100190.75;;;7.31
62611;BMP280;48683;48.084;17.272;2023-02-01T15:19:21;100194.03;;;7.21
62611;BMP280;48683;48.084;17.272;2023-02-01T15:21:50;100199.81;;;7.23
62611;BMP280;48683;48.084;17.272;2023-02-01T15:24:21;100204.72;;;7.21
62611;BMP280;48683;48.084;17.272;2023-02-01T15:26:47;100213.41;;;7.14
62611;BMP280;48683;48.084;17.272;2023-02-01T15:29:13;100219.00;;;7.05
62611;BMP280;48683;48.084;17.272;2023-02-01T15:31:42;100220.81;;;6.98
62611;BMP280;48683;48.084;17.272;2023-02-01T15:34:08;100215.44;;;6.94
62611;BMP280;48683;48.084;17.272;2023-02-01T15:36:33;100219.88;;;6.87
62611;BMP280;48683;48.084;17.272;2023-02-01T15:39:22;100224.09;;;6.88
62611;BMP280;48683;48.084;17.272;2023-02-01T15:41:55;100232.41;;;6.83
62611;BMP280;48683;48.084;17.272;2023-02-01T15:44:28;100246.41;;;6.76
62611;BMP280;48683;48.084;17.272;2023-02-01T15:46:56;100251.38;;;6.78
62611;BMP280;48683;48.084;17.272;2023-02-01T15:49:31;100251.75;;;6.76
62611;BMP280;48683;48.084;17.272;2023-02-01T15:52:00;100254.44;;;6.76
62611;BMP280;48683;48.084;17.272;2023-02-01T15:54:29;100254.38;;;6.73
62611;BMP280;48683;48.084;17.272;2023-02-01T15:56:58;100274.06;;;6.64
62611;BMP280;48683;48.084;17.272;2023-02-01T15:59:29;100263.00;;;6.66
62611;BMP280;48683;48.084;17.272;2023-02-01T16:01:56;100279.28;;;6.57
62611;BMP280;48683;48.084;17.272;2023-02-01T16:04:25;100265.50;;;6.55
62611;BMP280;48683;48.084;17.272;2023-02-01T16:06:59;100273.34;;;6.45
62611;BMP280;48683;48.084;17.272;2023-02-01T16:09:51;100268.56;;;6.35
62611;BMP280;48683;48.084;17.272;2023-02-01T16:12:32;100268.13;;;6.29
62611;BMP280;48683;48.084;17.272;2023-02-01T16:15:01;100276.84;;;6.26
62611;BMP280;48683;48.084;17.272;2023-02-01T16:17:27;100272.19;;;6.23
62611;BMP280;48683;48.084;17.272;2023-02-01T16:19:52;100269.81;;;6.18
62611;BMP280;48683;48.084;17.272;2023-02-01T16:22:17;100274.50;;;6.25
62611;BMP280;48683;48.084;17.272;2023-02-01T16:24:43;100276.63;;;6.15